sensor_id;sensor_type;location;lat;lon;timestamp;temperature;humidity
18781;DHT22;9519;51.890;8.970;2023-04-15T00:00:18;8.00;89.50
18781;DHT22;9519;51.890;8.970;2023-04-15T00:05:21;8.00;89.90
18781;DHT22;9519;51.890;8.970;2023-04-15T00:10:23;7.90;90.00
18781;DHT22;9519;51.890;8.970;2023-04-15T00:15:25;7.90;90.20
18781;DHT22;9519;51.890;8.970;2023-04-15T00:20:29;7.90;90.30
18781;DHT22;9519;51.890;8.970;2023-04-15T00:25:31;7.80;90.60
18781;DHT22;9519;51.890;8.970;2023-04-15T00:30:33;7.90;90.70
18781;DHT22;9519;51.890;8.970;2023-04-15T00:35:38;7.90;91.00
18781;DHT22;9519;51.890;8.970;2023-04-15T00:40:43;7.90;91.20
18781;DHT22;9519;51.890;8.970;2023-04-15T00:45:45;7.90;91.50
18781;DHT22;9519;51.890;8.970;2023-04-15T00:50:49;7.80;92.00
18781;DHT22;9519;51.890;8.970;2023-04-15T00:55:51;7.70;92.40
18781;DHT22;9519;51.890;8.970;2023-04-15T01:00:54;7.70;92.60
18781;DHT22;9519;51.890;8.970;2023-04-15T01:05:59;7.70;92.90
18781;DHT22;9519;51.890;8.970;2023-04-15T01:11:01;7.60;93.40
18781;DHT22;9519;51.890;8.970;2023-04-15T01:16:05;7.60;93.40
18781;DHT22;9519;51.890;8.970;2023-04-15T01:21:09;7.70;93.50
18781;DHT22;9519;51.890;8.970;2023-04-15T01:26:13;7.70;93.60
18781;DHT22;9519;51.890;8.970;2023-04-15T01:31:17;7.70;94.00
18781;DHT22;9519;51.890;8.970;2023-04-15T01:36:19;7.70;94.20
18781;DHT22;9519;51.890;8.970;2023-04-15T01:41:24;7.70;94.50
18781;DHT22;9519;51.890;8.970;2023-04-15T01:46:27;7.70;94.60
18781;DHT22;9519;51.890;8.970;2023-04-15T01:51:29;7.60;94.80
18781;DHT22;9519;51.890;8.970;2023-04-15T01:56:32;7.50;94.90
18781;DHT22;9519;51.890;8.970;2023-04-15T02:01:34;7.40;95.10
18781;DHT22;9519;51.890;8.970;2023-04-15T02:06:36;7.40;95.20
18781;DHT22;9519;51.890;8.970;2023-04-15T02:11:40;7.20;95.30
18781;DHT22;9519;51.890;8.970;2023-04-15T02:16:43;7.20;95.50
18781;DHT22;9519;51.890;8.970;2023-04-15T02:21:45;7.10;95.60
18781;DHT22;9519;51.890;8.970;2023-04-15T02:26:48;7.00;96.20
18781;DHT22;9519;51.890;8.970;2023-04-15T02:31:50;8.50;99.90
18781;DHT22;9519;51.890;8.970;2023-04-15T02:36:52;6.90;96.50
18781;DHT22;9519;51.890;8.970;2023-04-15T02:41:58;6.90;96.70
18781;DHT22;9519;51.890;8.970;2023-04-15T02:47:00;6.60;99.90
18781;DHT22;9519;51.890;8.970;2023-04-15T02:52:04;7.20;99.90
18781;DHT22;9519;51.890;8.970;2023-04-15T02:57:08;7.10;99.90
18781;DHT22;9519;51.890;8.970;2023-04-15T03:02:11;6.80;97.80
18781;DHT22;9519;51.890;8.970;2023-04-15T03:07:13;6.70;98.00
18781;DHT22;9519;51.890;8.970;2023-04-15T03:12:16;6.80;98.20
18781;DHT22;9519;51.890;8.970;2023-04-15T03:17:18;6.70;98.90
18781;DHT22;9519;51.890;8.970;2023-04-15T03:22:20;6.70;98.70
18781;DHT22;9519;51.890;8.970;2023-04-15T03:27:24;6.70;99.10
18781;DHT22;9519;51.890;8.970;2023-04-15T03:32:26;6.70;99.50
18781;DHT22;9519;51.890;8.970;2023-04-15T03:37:28;6.70;99.30
18781;DHT22;9519;51.890;8.970;2023-04-15T03:42:31;6.70;99.30
18781;DHT22;9519;51.890;8.970;2023-04-15T03:47:33;6.60;99.70
18781;DHT22;9519;51.890;8.970;2023-04-15T03:52:35;6.60;99.90
18781;DHT22;9519;51.890;8.970;2023-04-15T03:57:39;6.40;99.90
18781;DHT22;9519;51.890;8.970;2023-04-15T04:02:41;6.50;99.90
18781;DHT22;9519;51.890;8.970;2023-04-15T04:07:43;6.40;99.90
18781;DHT22;9519;51.890;8.970;2023-04-15T04:12:46;6.40;99.90
18781;DHT22;9519;51.890;8.970;2023-04-15T04:17:48;6.40;99.90
18781;DHT22;9519;51.890;8.970;2023-04-15T04:22:50;6.40;99.90
18781;DHT22;9519;51.890;8.970;2023-04-15T04:27:53;6.50;99.90
18781;DHT22;9519;51.890;8.970;2023-04-15T04:32:55;6.40;99.90
18781;DHT22;9519;51.890;8.970;2023-04-15T04:37:57;6.60;99.90
18781;DHT22;9519;51.890;8.970;2023-04-15T04:43:01;6.40;99.90
18781;DHT22;9519;51.890;8.970;2023-04-15T04:48:05;6.40;99.90
18781;DHT22;9519;51.890;8.970;2023-04-15T04:53:08;6.40;99.90
18781;DHT22;9519;51.890;8.970;2023-04-15T04:58:11;6.40;99.90
18781;DHT22;9519;51.890;8.970;2023-04-15T05:03:13;6.40;99.90
18781;DHT22;9519;51.890;8.970;2023-04-15T05:08:15;6.50;99.90
18781;DHT22;9519;51.890;8.970;2023-04-15T05:13:19;6.50;99.90
18781;DHT22;9519;51.890;8.970;2023-04-15T05:18:21;6.60;99.90
18781;DHT22;9519;51.890;8.970;2023-04-15T05:23:23;6.60;99.90
18781;DHT22;9519;51.890;8.970;2023-04-15T05:28:27;6.70;99.90
18781;DHT22;9519;51.890;8.970;2023-04-15T05:33:29;6.70;99.90
18781;DHT22;9519;51.890;8.970;2023-04-15T05:38:31;7.20;99.90
18781;DHT22;9519;51.890;8.970;2023-04-15T05:43:34;6.70;99.90
18781;DHT22;9519;51.890;8.970;2023-04-15T05:48:36;6.80;99.90
18781;DHT22;9519;51.890;8.970;2023-04-15T05:53:38;6.90;99.90
18781;DHT22;9519;51.890;8.970;2023-04-15T05:58:42;6.80;99.90
18781;DHT22;9519;51.890;8.970;2023-04-15T06:03:45;6.90;99.90
18781;DHT22;9519;51.890;8.970;2023-04-15T06:08:48;6.90;99.90
18781;DHT22;9519;51.890;8.970;2023-04-15T06:13:51;6.90;99.90
18781;DHT22;9519;51.890;8.970;2023-04-15T06:18:53;6.90;99.90
18781;DHT22;9519;51.890;8.970;2023-04-15T06:23:55;7.00;99.90
18781;DHT22;9519;51.890;8.970;2023-04-15T06:28:58;7.00;99.90
18781;DHT22;9519;51.890;8.970;2023-04-15T06:34:00;7.00;99.90
18781;DHT22;9519;51.890;8.970;2023-04-15T06:39:03;7.00;99.90
18781;DHT22;9519;51.890;8.970;2023-04-15T06:44:06;7.00;99.90
18781;DHT22;9519;51.890;8.970;2023-04-15T06:49:08;7.10;99.90
18781;DHT22;9519;51.890;8.970;2023-04-15T06:54:10;7.10;99.90
18781;DHT22;9519;51.890;8.970;2023-04-15T06:59:14;7.10;99.90
18781;DHT22;9519;51.890;8.970;2023-04-15T07:04:16;7.10;99.90
18781;DHT22;9519;51.890;8.970;2023-04-15T07:09:18;7.10;99.90
18781;DHT22;9519;51.890;8.970;2023-04-15T07:14:21;7.10;99.90
18781;DHT22;9519;51.890;8.970;2023-04-15T07:19:23;7.10;99.90
18781;DHT22;9519;51.890;8.970;2023-04-15T07:24:25;7.10;99.90
18781;DHT22;9519;51.890;8.970;2023-04-15T07:29:29;7.00;99.90
18781;DHT22;9519;51.890;8.970;2023-04-15T07:34:31;7.10;99.90
18781;DHT22;9519;51.890;8.970;2023-04-15T07:39:33;7.10;99.90
18781;DHT22;9519;51.890;8.970;2023-04-15T07:44:37;7.10;99.90
18781;DHT22;9519;51.890;8.970;2023-04-15T07:49:40;7.10;99.90
18781;DHT22;9519;51.890;8.970;2023-04-15T07:54:42;7.10;99.90
18781;DHT22;9519;51.890;8.970;2023-04-15T07:59:46;7.10;99.90
18781;DHT22;9519;51.890;8.970;2023-04-15T08:04:48;7.10;99.90
18781;DHT22;9519;51.890;8.970;2023-04-15T08:09:50;7.10;99.90
18781;DHT22;9519;51.890;8.970;2023-04-15T08:14:54;7.20;99.90
18781;DHT22;9519;51.890;8.970;2023-04-15T08:19:56;7.20;99.90
18781;DHT22;9519;51.890;8.970;2023-04-15T08:24:58;7.20;99.90
18781;DHT22;9519;51.890;8.970;2023-04-15T08:30:02;7.60;99.90
18781;DHT22;9519;51.890;8.970;2023-04-15T08:35:06;7.20;99.90
18781;DHT22;9519;51.890;8.970;2023-04-15T08:40:10;7.20;99.90
18781;DHT22;9519;51.890;8.970;2023-04-15T08:45:14;7.20;99.90
18781;DHT22;9519;51.890;8.970;2023-04-15T08:50:19;7.20;99.90
18781;DHT22;9519;51.890;8.970;2023-04-15T08:55:22;7.30;99.90
18781;DHT22;9519;51.890;8.970;2023-04-15T09:00:27;7.30;99.90
18781;DHT22;9519;51.890;8.970;2023-04-15T09:05:31;7.30;99.90
18781;DHT22;9519;51.890;8.970;2023-04-15T09:10:33;7.60;99.90
18781;DHT22;9519;51.890;8.970;2023-04-15T09:15:38;7.50;99.90
18781;DHT22;9519;51.890;8.970;2023-04-15T09:20:40;7.30;99.90
18781;DHT22;9519;51.890;8.970;2023-04-15T09:25:42;7.40;99.90
18781;DHT22;9519;51.890;8.970;2023-04-15T09:30:51;7.40;99.90
18781;DHT22;9519;51.890;8.970;2023-04-15T09:35:57;7.40;99.90
18781;DHT22;9519;51.890;8.970;2023-04-15T09:41:00;7.40;99.90
18781;DHT22;9519;51.890;8.970;2023-04-15T09:46:05;7.50;99.90
18781;DHT22;9519;51.890;8.970;2023-04-15T09:51:07;7.50;99.90
18781;DHT22;9519;51.890;8.970;2023-04-15T09:56:09;7.60;99.90
18781;DHT22;9519;51.890;8.970;2023-04-15T10:01:13;7.60;99.90
18781;DHT22;9519;51.890;8.970;2023-04-15T10:06:16;7.60;99.90
18781;DHT22;9519;51.890;8.970;2023-04-15T10:11:19;7.70;99.90
18781;DHT22;9519;51.890;8.970;2023-04-15T10:16:26;7.70;99.90
18781;DHT22;9519;51.890;8.970;2023-04-15T10:21:30;7.70;99.90
18781;DHT22;9519;51.890;8.970;2023-04-15T10:26:32;8.10;99.90
18781;DHT22;9519;51.890;8.970;2023-04-15T10:31:35;7.80;99.90
18781;DHT22;9519;51.890;8.970;2023-04-15T10:36:38;7.90;99.90
18781;DHT22;9519;51.890;8.970;2023-04-15T10:41:41;7.90;99.90
18781;DHT22;9519;51.890;8.970;2023-04-15T10:46:44;8.00;99.90
18781;DHT22;9519;51.890;8.970;2023-04-15T10:51:52;8.00;99.90
18781;DHT22;9519;51.890;8.970;2023-04-15T10:57:07;8.10;99.90
18781;DHT22;9519;51.890;8.970;2023-04-15T11:02:15;8.20;99.90
18781;DHT22;9519;51.890;8.970;2023-04-15T11:07:33;8.20;99.90
18781;DHT22;9519;51.890;8.970;2023-04-15T11:12:40;8.20;99.90
18781;DHT22;9519;51.890;8.970;2023-04-15T11:17:43;8.30;99.90
18781;DHT22;9519;51.890;8.970;2023-04-15T11:22:46;8.30;99.90
18781;DHT22;9519;51.890;8.970;2023-04-15T11:27:49;8.40;99.90
18781;DHT22;9519;51.890;8.970;2023-04-15T11:32:54;8.40;99.90
18781;DHT22;9519;51.890;8.970;2023-04-15T11:38:02;8.40;99.90
18781;DHT22;9519;51.890;8.970;2023-04-15T11:43:07;8.40;99.90
18781;DHT22;9519;51.890;8.970;2023-04-15T11:48:12;8.50;99.90
18781;DHT22;9519;51.890;8.970;2023-04-15T11:53:15;8.50;99.90
18781;DHT22;9519;51.890;8.970;2023-04-15T11:58:19;8.50;99.90
18781;DHT22;9519;51.890;8.970;2023-04-15T12:03:25;8.60;99.90
18781;DHT22;9519;51.890;8.970;2023-04-15T12:08:50;8.70;99.90
18781;DHT22;9519;51.890;8.970;2023-04-15T12:14:04;8.70;99.90
18781;DHT22;9519;51.890;8.970;2023-04-15T12:19:14;8.80;99.90
18781;DHT22;9519;51.890;8.970;2023-04-15T12:24:20;8.80;99.90
18781;DHT22;9519;51.890;8.970;2023-04-15T12:29:25;8.80;99.90
18781;DHT22;9519;51.890;8.970;2023-04-15T12:34:31;8.80;99.90
18781;DHT22;9519;51.890;8.970;2023-04-15T12:39:35;8.90;99.90
18781;DHT22;9519;51.890;8.970;2023-04-15T12:44:38;8.80;99.90
18781;DHT22;9519;51.890;8.970;2023-04-15T12:49:42;8.90;99.90
18781;DHT22;9519;51.890;8.970;2023-04-15T12:54:45;8.90;99.90
18781;DHT22;9519;51.890;8.970;2023-04-15T12:59:47;8.90;99.90
18781;DHT22;9519;51.890;8.970;2023-04-15T13:04:50;8.90;99.90
18781;DHT22;9519;51.890;8.970;2023-04-15T13:09:52;8.80;99.90
18781;DHT22;9519;51.890;8.970;2023-04-15T13:14:54;8.80;99.90
18781;DHT22;9519;51.890;8.970;2023-04-15T13:19:57;8.90;99.90
18781;DHT22;9519;51.890;8.970;2023-04-15T13:24:59;8.90;99.90
18781;DHT22;9519;51.890;8.970;2023-04-15T13:30:02;8.90;99.90
18781;DHT22;9519;51.890;8.970;2023-04-15T13:35:06;8.90;99.90
18781;DHT22;9519;51.890;8.970;2023-04-15T13:40:11;9.00;99.90
18781;DHT22;9519;51.890;8.970;2023-04-15T13:45:13;9.10;99.90
18781;DHT22;9519;51.890;8.970;2023-04-15T13:50:17;9.00;99.90
18781;DHT22;9519;51.890;8.970;2023-04-15T13:55:19;9.00;99.90
18781;DHT22;9519;51.890;8.970;2023-04-15T14:00:22;9.00;99.90
18781;DHT22;9519;51.890;8.970;2023-04-15T14:05:26;9.00;99.90
18781;DHT22;9519;51.890;8.970;2023-04-15T14:10:28;9.00;99.90
18781;DHT22;9519;51.890;8.970;2023-04-15T14:15:30;9.00;99.90
18781;DHT22;9519;51.890;8.970;2023-04-15T14:20:34;9.10;99.90
18781;DHT22;9519;51.890;8.970;2023-04-15T14:25:36;9.10;99.90
18781;DHT22;9519;51.890;8.970;2023-04-15T14:30:39;9.10;99.90
18781;DHT22;9519;51.890;8.970;2023-04-15T14:35:42;9.10;99.90
18781;DHT22;9519;51.890;8.970;2023-04-15T14:40:44;9.10;99.90
18781;DHT22;9519;51.890;8.970;2023-04-15T14:45:46;9.20;99.90
18781;DHT22;9519;51.890;8.970;2023-04-15T14:50:50;9.20;99.90
18781;DHT22;9519;51.890;8.970;2023-04-15T14:55:52;9.20;99.90
18781;DHT22;9519;51.890;8.970;2023-04-15T15:00:54;9.30;99.90
18781;DHT22;9519;51.890;8.970;2023-04-15T15:05:57;9.30;99.90
18781;DHT22;9519;51.890;8.970;2023-04-15T15:10:59;9.40;99.90
18781;DHT22;9519;51.890;8.970;2023-04-15T15:16:01;9.40;99.90
18781;DHT22;9519;51.890;8.970;2023-04-15T15:21:05;9.50;99.90
18781;DHT22;9519;51.890;8.970;2023-04-15T15:26:07;9.50;99.90
18781;DHT22;9519;51.890;8.970;2023-04-15T15:31:09;9.50;99.90
18781;DHT22;9519;51.890;8.970;2023-04-15T15:36:13;9.50;99.90
18781;DHT22;9519;51.890;8.970;2023-04-15T15:41:15;9.50;99.90
18781;DHT22;9519;51.890;8.970;2023-04-15T15:46:17;9.50;99.90
18781;DHT22;9519;51.890;8.970;2023-04-15T15:51:20;9.50;99.90
18781;DHT22;9519;51.890;8.970;2023-04-15T15:56:22;9.60;99.90
18781;DHT22;9519;51.890;8.970;2023-04-15T16:01:24;9.60;99.90
18781;DHT22;9519;51.890;8.970;2023-04-15T16:06:28;9.60;99.90
18781;DHT22;9519;51.890;8.970;2023-04-15T16:11:31;9.60;99.90
18781;DHT22;9519;51.890;8.970;2023-04-15T16:16:33;9.70;99.90
18781;DHT22;9519;51.890;8.970;2023-04-15T16:21:36;9.70;99.90
18781;DHT22;9519;51.890;8.970;2023-04-15T16:26:39;9.70;99.90
18781;DHT22;9519;51.890;8.970;2023-04-15T16:31:42;9.70;99.90
18781;DHT22;9519;51.890;8.970;2023-04-15T16:36:45;9.70;99.90
18781;DHT22;9519;51.890;8.970;2023-04-15T16:41:48;9.70;99.90
18781;DHT22;9519;51.890;8.970;2023-04-15T16:46:52;9.80;99.90
18781;DHT22;9519;51.890;8.970;2023-04-15T16:51:56;9.80;99.90
18781;DHT22;9519;51.890;8.970;2023-04-15T16:56:58;9.80;99.90
18781;DHT22;9519;51.890;8.970;2023-04-15T17:02:01;9.80;99.90
18781;DHT22;9519;51.890;8.970;2023-04-15T17:07:05;9.80;99.90
18781;DHT22;9519;51.890;8.970;2023-04-15T17:12:08;9.80;99.90
18781;DHT22;9519;51.890;8.970;2023-04-15T17:17:10;9.80;99.90
18781;DHT22;9519;51.890;8.970;2023-04-15T17:22:13;9.80;99.90
18781;DHT22;9519;51.890;8.970;2023-04-15T17:27:16;9.80;99.90
18781;DHT22;9519;51.890;8.970;2023-04-15T17:32:18;9.80;99.90
18781;DHT22;9519;51.890;8.970;2023-04-15T17:37:23;9.80;99.90
18781;DHT22;9519;51.890;8.970;2023-04-15T17:42:25;9.80;99.90
18781;DHT22;9519;51.890;8.970;2023-04-15T17:47:27;9.80;99.90
18781;DHT22;9519;51.890;8.970;2023-04-15T17:52:31;9.80;99.90
18781;DHT22;9519;51.890;8.970;2023-04-15T17:57:33;9.70;99.90
18781;DHT22;9519;51.890;8.970;2023-04-15T18:02:36;9.70;99.90
18781;DHT22;9519;51.890;8.970;2023-04-15T18:07:39;9.70;99.90
18781;DHT22;9519;51.890;8.970;2023-04-15T18:12:41;9.60;99.90
18781;DHT22;9519;51.890;8.970;2023-04-15T18:17:43;9.70;99.90
18781;DHT22;9519;51.890;8.970;2023-04-15T18:22:47;9.60;99.90
18781;DHT22;9519;51.890;8.970;2023-04-15T18:27:50;9.50;99.90
18781;DHT22;9519;51.890;8.970;2023-04-15T18:32:52;9.50;99.90
18781;DHT22;9519;51.890;8.970;2023-04-15T18:37:56;9.60;99.90
18781;DHT22;9519;51.890;8.970;2023-04-15T18:42:58;9.50;99.90
18781;DHT22;9519;51.890;8.970;2023-04-15T18:48:01;9.50;99.90
18781;DHT22;9519;51.890;8.970;2023-04-15T18:53:04;9.50;99.90
18781;DHT22;9519;51.890;8.970;2023-04-15T18:58:06;9.50;99.90
18781;DHT22;9519;51.890;8.970;2023-04-15T19:03:09;9.60;99.90
18781;DHT22;9519;51.890;8.970;2023-04-15T19:08:12;9.50;99.90
18781;DHT22;9519;51.890;8.970;2023-04-15T19:13:15;9.60;99.90
18781;DHT22;9519;51.890;8.970;2023-04-15T19:18:17;9.60;99.90
18781;DHT22;9519;51.890;8.970;2023-04-15T19:23:20;9.50;99.90
18781;DHT22;9519;51.890;8.970;2023-04-15T19:28:22;9.50;99.90
18781;DHT22;9519;51.890;8.970;2023-04-15T19:33:27;9.50;99.90
18781;DHT22;9519;51.890;8.970;2023-04-15T19:38:32;9.50;99.90
18781;DHT22;9519;51.890;8.970;2023-04-15T19:43:36;9.50;99.90
18781;DHT22;9519;51.890;8.970;2023-04-15T19:48:38;9.40;99.90
18781;DHT22;9519;51.890;8.970;2023-04-15T19:53:42;9.40;99.90
18781;DHT22;9519;51.890;8.970;2023-04-15T19:58:44;9.40;99.90
18781;DHT22;9519;51.890;8.970;2023-04-15T20:03:52;9.40;99.90
18781;DHT22;9519;51.890;8.970;2023-04-15T20:08:56;9.40;99.90
18781;DHT22;9519;51.890;8.970;2023-04-15T20:13:58;9.40;99.90
18781;DHT22;9519;51.890;8.970;2023-04-15T20:19:00;9.40;99.90
18781;DHT22;9519;51.890;8.970;2023-04-15T20:24:09;9.40;99.90
18781;DHT22;9519;51.890;8.970;2023-04-15T20:29:11;9.40;99.90
18781;DHT22;9519;51.890;8.970;2023-04-15T20:34:14;9.40;99.90
18781;DHT22;9519;51.890;8.970;2023-04-15T20:39:17;9.40;99.90
18781;DHT22;9519;51.890;8.970;2023-04-15T20:44:19;9.40;99.90
18781;DHT22;9519;51.890;8.970;2023-04-15T20:49:21;9.40;99.90
18781;DHT22;9519;51.890;8.970;2023-04-15T20:54:25;9.40;99.90
18781;DHT22;9519;51.890;8.970;2023-04-15T20:59:27;9.50;99.90
18781;DHT22;9519;51.890;8.970;2023-04-15T21:04:29;9.50;99.90
18781;DHT22;9519;51.890;8.970;2023-04-15T21:09:33;9.50;99.90
18781;DHT22;9519;51.890;8.970;2023-04-15T21:14:35;9.50;99.90
18781;DHT22;9519;51.890;8.970;2023-04-15T21:19:37;9.50;99.90
18781;DHT22;9519;51.890;8.970;2023-04-15T21:24:41;9.60;99.90
18781;DHT22;9519;51.890;8.970;2023-04-15T21:29:43;9.60;99.90
18781;DHT22;9519;51.890;8.970;2023-04-15T21:34:45;9.60;99.90
18781;DHT22;9519;51.890;8.970;2023-04-15T21:39:49;9.50;99.90
18781;DHT22;9519;51.890;8.970;2023-04-15T21:44:51;9.60;99.90
18781;DHT22;9519;51.890;8.970;2023-04-15T21:49:54;9.60;99.90
18781;DHT22;9519;51.890;8.970;2023-04-15T21:54:58;9.60;99.90
18781;DHT22;9519;51.890;8.970;2023-04-15T22:00:00;9.60;99.90
18781;DHT22;9519;51.890;8.970;2023-04-15T22:05:03;9.60;99.90
18781;DHT22;9519;51.890;8.970;2023-04-15T22:10:08;9.70;99.90
18781;DHT22;9519;51.890;8.970;2023-04-15T22:15:10;9.60;99.90
18781;DHT22;9519;51.890;8.970;2023-04-15T22:20:12;9.70;99.90
18781;DHT22;9519;51.890;8.970;2023-04-15T22:25:16;9.70;99.90
18781;DHT22;9519;51.890;8.970;2023-04-15T22:30:18;9.70;99.90
18781;DHT22;9519;51.890;8.970;2023-04-15T22:35:20;9.70;99.90
18781;DHT22;9519;51.890;8.970;2023-04-15T22:40:24;9.70;99.90
18781;DHT22;9519;51.890;8.970;2023-04-15T22:45:26;9.70;99.90
18781;DHT22;9519;51.890;8.970;2023-04-15T22:50:29;9.70;99.90
18781;DHT22;9519;51.890;8.970;2023-04-15T22:55:33;9.70;99.90
18781;DHT22;9519;51.890;8.970;2023-04-15T23:00:35;9.70;99.90
18781;DHT22;9519;51.890;8.970;2023-04-15T23:05:38;9.70;99.90
18781;DHT22;9519;51.890;8.970;2023-04-15T23:10:42;9.70;99.90
18781;DHT22;9519;51.890;8.970;2023-04-15T23:15:44;9.70;99.90
18781;DHT22;9519;51.890;8.970;2023-04-15T23:20:46;9.70;99.90
18781;DHT22;9519;51.890;8.970;2023-04-15T23:25:49;9.70;99.90
18781;DHT22;9519;51.890;8.970;2023-04-15T23:30:52;9.70;99.90
18781;DHT22;9519;51.890;8.970;2023-04-15T23:35:54;9.70;99.90
18781;DHT22;9519;51.890;8.970;2023-04-15T23:40:59;9.70;99.90
18781;DHT22;9519;51.890;8.970;2023-04-15T23:46:01;9.70;99.90
18781;DHT22;9519;51.890;8.970;2023-04-15T23:51:03;9.70;99.90
18781;DHT22;9519;51.890;8.970;2023-04-15T23:56:07;9.70;99.90
